Time;durP1;ratioP1;P1;durP2;ratioP2;P2;SDS_P1;SDS_P2;PMS_P1;PMS_P2;Temp;Humidity;BMP_temperature;BMP_pressure;BME280_temperature;BME280_humidity;BME280_pressure;Samples;Min_cycle;Max_cycle;Signal;HPM_P1;HPM_P2
2022/05/29 00:01:07;;;;;;;12.60;4.25;;;;;;;18.71;77.39;99177.09;3114958;28;20459;-73
2022/05/29 00:02:40;;;;;;;15.40;5.25;;;;;;;18.82;77.35;99186.72;3114965;28;20455;-73
2022/05/29 00:04:12;;;;;;;13.15;3.75;;;;;;;18.83;77.55;99175.19;3114386;28;20053;-72
2022/05/29 00:05:46;;;;;;;14.30;3.83;;;;;;;18.78;77.40;99167.72;3109049;28;20794;-73
2022/05/29 00:07:20;;;;;;;12.38;3.42;;;;;;;18.71;77.10;99149.88;3114892;28;20613;-72
2022/05/29 00:08:52;;;;;;;12.80;4.38;;;;;;;18.81;77.04;99164.78;3114819;28;20053;-72
2022/05/29 00:10:24;;;;;;;13.50;4.20;;;;;;;18.86;77.20;99186.28;3115157;28;20131;-72
2022/05/29 00:11:57;;;;;;;9.00;4.00;;;;;;;18.86;77.01;99173.09;3114769;28;20061;-72
2022/05/29 00:13:29;;;;;;;12.52;4.07;;;;;;;18.92;76.99;99178.81;3114726;28;20115;-74
2022/05/29 00:15:02;;;;;;;11.48;3.88;;;;;;;18.93;76.96;99164.63;3114465;28;20081;-73
2022/05/29 00:16:33;;;;;;;11.85;4.22;;;;;;;18.95;76.91;99152.16;3114241;28;20080;-72
2022/05/29 00:18:06;;;;;;;15.98;4.38;;;;;;;18.98;76.65;99136.03;3114943;28;20458;-72
2022/05/29 00:19:38;;;;;;;11.60;4.30;;;;;;;18.94;76.56;99108.28;3114587;28;20369;-72
2022/05/29 00:21:10;;;;;;;16.35;4.30;;;;;;;19.04;76.59;99111.72;3114652;28;20308;-72
2022/05/29 00:22:43;;;;;;;9.73;3.67;;;;;;;19.05;76.69;99123.97;3114939;28;20533;-72
2022/05/29 00:24:15;;;;;;;12.52;3.80;;;;;;;19.06;76.53;99125.63;3114928;28;20693;-71
2022/05/29 00:25:51;;;;;;;10.38;3.80;;;;;;;19.01;76.61;99122.56;3115005;28;20057;-71
2022/05/29 00:27:25;;;;;;;8.05;3.47;;;;;;;19.02;76.54;99126.91;3115138;28;20053;-74
2022/05/29 00:28:57;;;;;;;13.13;3.58;;;;;;;18.99;76.44;99119.22;3114832;28;20173;-73
2022/05/29 00:30:29;;;;;;;11.02;3.78;;;;;;;18.95;76.46;99117.84;3114969;28;20660;-74
2022/05/29 00:32:01;;;;;;;13.07;4.55;;;;;;;18.88;76.37;99114.13;3114727;28;20057;-74
2022/05/29 00:33:33;;;;;;;15.40;4.63;;;;;;;18.74;76.43;99100.34;3114925;28;20103;-74
2022/05/29 00:35:05;;;;;;;14.90;4.28;;;;;;;18.53;76.77;99066.16;3112902;28;20494;-74
2022/05/29 00:36:40;;;;;;;16.75;5.05;;;;;;;18.85;76.52;99121.31;3112364;28;20041;-73
2022/05/29 00:38:14;;;;;;;11.25;3.15;;;;;;;18.84;76.44;99118.81;3112669;28;20045;-74
2022/05/29 00:39:48;;;;;;;12.55;3.90;;;;;;;18.86;76.35;99116.88;3113655;28;20049;-74
2022/05/29 00:41:24;;;;;;;13.10;3.95;;;;;;;18.79;76.32;99107.88;3112326;28;20598;-74
2022/05/29 00:42:58;;;;;;;11.68;3.92;;;;;;;18.84;76.23;99113.53;3113165;28;20053;-75
2022/05/29 00:44:31;;;;;;;14.93;4.28;;;;;;;18.81;76.32;99121.72;3113185;28;20057;-74
2022/05/29 00:46:04;;;;;;;19.35;4.60;;;;;;;18.80;76.11;99120.91;3113703;28;20100;-74
2022/05/29 00:47:36;;;;;;;12.13;4.10;;;;;;;18.82;76.16;99120.78;3112459;28;20057;-74
2022/05/29 00:49:09;;;;;;;12.23;3.72;;;;;;;18.81;75.95;99114.69;3112947;28;20367;-74
2022/05/29 00:50:41;;;;;;;12.20;4.00;;;;;;;18.82;75.97;99118.97;3112719;28;20115;-74
2022/05/29 00:52:16;;;;;;;13.52;3.72;;;;;;;18.79;76.03;99110.50;3113063;28;20049;-74
2022/05/29 00:53:48;;;;;;;15.02;3.85;;;;;;;18.72;76.12;99110.16;3112394;28;20095;-73
2022/05/29 00:55:25;;;;;;;12.32;4.07;;;;;;;18.71;76.21;99092.69;3112255;28;20470;-73
2022/05/29 00:56:59;;;;;;;13.10;3.95;;;;;;;18.72;76.07;99072.41;3113316;28;20549;-73
2022/05/29 00:58:33;;;;;;;14.98;3.65;;;;;;;18.44;76.21;99024.00;3116876;28;20447;-73
2022/05/29 01:00:09;;;;;;;14.57;3.85;;;;;;;18.69;75.80;99060.34;3111935;28;20055;-74
2022/05/29 01:01:41;;;;;;;16.83;4.05;;;;;;;18.69;75.85;99060.34;3111962;28;20491;-75
2022/05/29 01:03:13;;;;;;;12.63;3.47;;;;;;;18.71;75.89;99057.56;3112635;28;20065;-75
2022/05/29 01:04:45;;;;;;;14.40;3.25;;;;;;;18.73;75.90;99059.13;3109447;28;20053;-74
2022/05/29 01:06:20;;;;;;;12.77;4.47;;;;;;;18.72;75.67;99062.69;3116941;28;20055;-73
2022/05/29 01:07:55;;;;;;;8.85;4.15;;;;;;;18.54;75.53;99036.19;3116716;28;20534;-74
2022/05/29 01:09:27;;;;;;;11.82;3.58;;;;;;;18.71;75.43;99068.94;3116644;28;20450;-73
2022/05/29 01:11:18;;;;;;;11.30;3.45;;;;;;;18.76;75.43;99079.13;3117169;28;20198;-73
2022/05/29 01:13:00;;;;;;;15.90;3.83;;;;;;;18.72;75.39;99077.69;3114696;28;20053;-76
2022/05/29 01:14:43;;;;;;;11.40;3.00;;;;;;;18.70;75.22;99082.28;3116763;28;20054;-75
2022/05/29 01:16:26;;;;;;;13.63;3.42;;;;;;;18.61;75.32;99068.97;3114859;28;20053;-75
2022/05/29 01:18:15;;;;;;;9.95;3.92;;;;;;;18.61;75.04;99071.59;3111590;28;20084;-74
2022/05/29 01:20:03;;;;;;;13.70;4.00;;;;;;;18.62;75.12;99069.78;3117237;28;20127;-74
2022/05/29 01:21:59;;;;;;;14.20;3.50;;;;;;;18.63;75.06;99071.44;3116602;28;20511;-74
2022/05/29 01:23:58;;;;;;;9.15;3.80;;;;;;;18.65;74.98;99087.97;3117172;28;20566;-73
2022/05/29 01:26:04;;;;;;;12.40;3.55;;;;;;;18.64;74.97;99092.41;3116691;28;20119;-73
2022/05/29 01:27:48;;;;;;;9.82;4.32;;;;;;;18.68;74.74;99106.16;3116706;28;20050;-72
2022/05/29 01:29:32;;;;;;;12.48;3.25;;;;;;;18.72;74.95;99123.34;3110502;28;20053;-73
2022/05/29 01:31:07;;;;;;;12.52;3.72;;;;;;;18.73;74.78;99134.75;3111624;28;20084;-73
2022/05/29 01:32:46;;;;;;;14.15;3.70;;;;;;;18.76;74.70;99145.06;3116531;28;20115;-75
2022/05/29 01:34:27;;;;;;;21.65;4.38;;;;;;;18.78;74.44;99154.53;3115173;28;20522;-75
2022/05/29 01:36:07;;;;;;;13.73;4.60;;;;;;;18.72;74.45;99141.81;3113979;28;20596;-73
2022/05/29 01:37:49;;;;;;;14.68;3.55;;;;;;;18.61;74.19;99126.16;3116588;28;20053;-73
2022/05/29 01:39:24;;;;;;;11.93;4.13;;;;;;;18.81;74.22;99153.38;3116652;28;20049;-75
2022/05/29 01:40:59;;;;;;;14.43;4.05;;;;;;;18.64;74.13;99123.22;3111901;28;20796;-74
2022/05/29 01:42:38;;;;;;;9.95;3.40;;;;;;;18.76;73.95;99145.06;3120169;28;20053;-74
2022/05/29 01:44:15;;;;;;;9.10;3.15;;;;;;;18.84;74.04;99158.38;3114785;28;20065;-73
2022/05/29 01:45:56;;;;;;;9.25;3.15;;;;;;;18.84;73.72;99148.69;3116619;28;20119;-74
2022/05/29 01:47:35;;;;;;;13.82;3.42;;;;;;;18.79;73.72;99140.34;3113352;28;20781;-74
2022/05/29 01:49:14;;;;;;;10.65;3.92;;;;;;;18.88;73.47;99145.78;3116401;28;20450;-73
2022/05/29 01:50:54;;;;;;;13.95;3.60;;;;;;;18.86;73.52;99141.44;3116407;28;20136;-73
2022/05/29 01:52:32;;;;;;;7.50;2.90;;;;;;;18.90;73.19;99164.91;3116394;28;20229;-73
2022/05/29 01:54:11;;;;;;;10.80;2.88;;;;;;;18.92;72.90;99177.00;3116031;28;20589;-73
2022/05/29 01:55:48;;;;;;;15.25;3.97;;;;;;;18.92;72.89;99184.09;3116207;28;20769;-73
2022/05/29 01:57:25;;;;;;;11.95;3.78;;;;;;;18.94;72.95;99177.72;3118437;28;20588;-73
2022/05/29 01:59:01;;;;;;;10.55;3.30;;;;;;;18.96;72.91;99164.34;3116010;28;20057;-73
2022/05/29 02:00:33;;;;;;;10.73;3.03;;;;;;;18.96;73.29;99152.03;3116288;28;20050;-74
2022/05/29 02:02:10;;;;;;;15.75;3.33;;;;;;;18.97;73.58;99132.56;3116021;28;20123;-73
2022/05/29 02:03:47;;;;;;;20.73;3.83;;;;;;;18.95;74.01;99102.84;3110043;28;20183;-73
2022/05/29 02:05:22;;;;;;;9.07;4.07;;;;;;;18.92;74.54;99081.19;3109735;28;20125;-74
2022/05/29 02:09:03;;;;;;;18.27;5.63;;;;;;;18.76;75.04;99058.03;3081974;28;20205;-73
2022/05/29 02:10:41;;;;;;;13.75;4.03;;;;;;;18.71;75.39;99076.03;3080841;28;20051;-71
2022/05/29 02:12:18;;;;;;;9.60;3.53;;;;;;;18.73;75.77;99119.81;3081004;28;20162;-72
2022/05/29 02:13:55;;;;;;;10.80;4.13;;;;;;;18.62;76.33;99159.44;3079076;28;20058;-71
2022/05/29 02:15:34;;;;;;;13.43;3.75;;;;;;;18.48;77.12;99180.91;3115900;28;20144;-73
2022/05/29 02:17:13;;;;;;;12.57;4.10;;;;;;;18.33;77.71;99197.09;3116108;28;20152;-72
2022/05/29 02:18:52;;;;;;;12.95;4.20;;;;;;;18.24;78.15;99208.44;3115885;28;20057;-72
2022/05/29 02:20:27;;;;;;;13.82;4.05;;;;;;;18.18;78.66;99224.78;3115824;28;20064;-74
2022/05/29 02:22:02;;;;;;;14.98;3.90;;;;;;;18.14;78.47;99240.03;3115924;28;20107;-76
2022/05/29 02:23:37;;;;;;;10.35;3.80;;;;;;;18.11;79.02;99242.09;3115934;28;20111;-75
2022/05/29 02:25:13;;;;;;;16.75;4.15;;;;;;;18.04;79.29;99228.59;3117781;28;20054;-74
2022/05/29 02:26:51;;;;;;;9.85;3.53;;;;;;;18.03;79.24;99208.50;3115778;28;20053;-74
2022/05/29 02:28:31;;;;;;;9.20;3.55;;;;;;;18.05;79.26;99179.41;3115746;28;20057;-73
2022/05/29 02:30:06;;;;;;;11.07;3.42;;;;;;;18.08;79.06;99168.59;3115670;28;20379;-74
2022/05/29 02:31:46;;;;;;;8.13;3.35;;;;;;;18.13;78.93;99155.81;3116164;28;20053;-73
2022/05/29 02:33:24;;;;;;;10.02;3.83;;;;;;;18.15;78.89;99149.47;3110606;28;20053;-73
2022/05/29 02:35:03;;;;;;;12.80;3.55;;;;;;;18.19;79.03;99148.25;3115559;28;20103;-74
2022/05/29 02:36:40;;;;;;;17.20;4.32;;;;;;;18.22;78.81;99149.78;3115649;28;20072;-74
2022/05/29 02:38:18;;;;;;;10.50;4.13;;;;;;;18.26;78.68;99159.09;3117409;28;20053;-75
2022/05/29 02:40:03;;;;;;;14.95;3.95;;;;;;;18.25;78.42;99170.59;3115823;28;20096;-74
2022/05/29 02:41:46;;;;;;;15.40;4.13;;;;;;;18.27;78.63;99186.28;3111555;28;20053;-74
2022/05/29 02:43:24;;;;;;;14.18;4.05;;;;;;;18.27;78.66;99186.28;3115492;28;20241;-74
2022/05/29 02:45:05;;;;;;;8.68;3.17;;;;;;;18.32;78.57;99192.81;3115801;28;20049;-74
2022/05/29 02:46:44;;;;;;;14.20;4.00;;;;;;;18.29;78.33;99169.34;3115826;28;20120;-74
2022/05/29 02:48:25;;;;;;;17.90;5.05;;;;;;;18.31;78.18;99175.34;3115491;28;20474;-73
2022/05/29 02:50:18;;;;;;;16.80;4.25;;;;;;;18.27;78.47;99175.72;3115940;28;20057;-72
2022/05/29 02:51:52;;;;;;;11.93;3.83;;;;;;;18.21;78.73;99171.00;3114717;28;20049;-73
2022/05/29 02:53:25;;;;;;;13.48;4.15;;;;;;;18.25;78.79;99175.88;3115522;28;20061;-72
2022/05/29 02:54:58;;;;;;;9.15;3.85;;;;;;;18.27;78.99;99183.63;3115491;28;20049;-72
2022/05/29 02:56:30;;;;;;;12.45;3.80;;;;;;;18.28;79.26;99199.31;3115771;28;20054;-73
2022/05/29 02:58:05;;;;;;;13.38;4.80;;;;;;;18.28;79.32;99209.00;3116180;28;20136;-73
2022/05/29 02:59:43;;;;;;;12.52;3.90;;;;;;;18.28;79.42;99230.94;3115604;28;20053;-73
2022/05/29 03:01:22;;;;;;;12.38;3.83;;;;;;;18.18;79.29;99217.72;3115380;28;20057;-73
2022/05/29 03:03:06;;;;;;;13.80;3.72;;;;;;;18.28;79.16;99224.81;3115513;28;20193;-73
2022/05/29 03:04:47;;;;;;;8.77;3.90;;;;;;;18.29;79.19;99227.34;3115566;28;20514;-74
2022/05/29 03:06:31;;;;;;;12.05;3.67;;;;;;;18.32;79.20;99231.53;3115315;28;20104;-73
2022/05/29 03:08:34;;;;;;;12.88;4.22;;;;;;;18.34;78.98;99240.13;3115315;28;20049;-73
2022/05/29 03:10:14;;;;;;;12.55;3.63;;;;;;;18.33;78.98;99227.91;3115377;28;20115;-73
2022/05/29 03:11:47;;;;;;;13.18;3.95;;;;;;;18.31;79.04;99211.38;3112024;28;20073;-73
2022/05/29 03:13:25;;;;;;;;;;;;;;;18.36;79.05;99220.56;3112528;28;20053;-74
2022/05/29 03:15:09;;;;;;;11.93;3.75;;;;;;;18.24;79.31;99189.16;3115595;28;20326;-74
2022/05/29 03:16:52;;;;;;;20.88;4.28;;;;;;;18.23;79.85;99184.88;3115567;28;20057;-74
2022/05/29 03:18:39;;;;;;;13.48;4.32;;;;;;;18.18;80.04;99172.09;3115167;28;20053;-72
2022/05/29 03:20:20;;;;;;;17.20;4.53;;;;;;;18.22;80.28;99185.81;3112522;28;20073;-73
2022/05/29 03:22:04;;;;;;;14.63;3.90;;;;;;;18.22;80.29;99188.47;3115169;28;20106;-73
2022/05/29 03:23:44;;;;;;;19.85;4.82;;;;;;;18.09;80.25;99164.97;3115252;28;20073;-74
2022/05/29 03:25:22;;;;;;;12.57;4.65;;;;;;;18.24;80.14;99184.72;3115175;28;20108;-73
2022/05/29 03:27:01;;;;;;;16.48;4.72;;;;;;;18.27;79.70;99192.38;3115242;28;20061;-74
2022/05/29 03:28:40;;;;;;;12.85;3.97;;;;;;;18.26;79.55;99197.78;3115138;28;20149;-73
2022/05/29 03:30:17;;;;;;;13.02;4.47;;;;;;;18.23;79.44;99185.69;3115337;28;20095;-74
2022/05/29 03:31:50;;;;;;;8.60;4.50;;;;;;;18.22;79.58;99176.13;3115084;28;20123;-73
2022/05/29 03:33:22;;;;;;;13.52;4.82;;;;;;;18.23;79.66;99155.88;3115370;28;20206;-73
2022/05/29 03:34:55;;;;;;;12.57;4.22;;;;;;;18.23;80.04;99137.44;3116019;28;20053;-74
2022/05/29 03:36:29;;;;;;;15.63;4.97;;;;;;;18.22;80.16;99131.34;3115115;28;20053;-73
2022/05/29 03:38:04;;;;;;;16.60;4.50;;;;;;;18.21;80.29;99128.81;3115143;28;20875;-73
2022/05/29 03:39:36;;;;;;;9.55;5.05;;;;;;;18.16;80.27;99135.34;3114765;28;20069;-71
2022/05/29 03:41:13;;;;;;;11.20;3.90;;;;;;;18.19;80.02;99150.88;3109199;28;20057;-72
2022/05/29 03:42:46;;;;;;;15.75;3.92;;;;;;;18.02;79.88;99133.06;3108952;28;20534;-72
2022/05/29 03:44:19;;;;;;;12.98;4.70;;;;;;;18.14;79.76;99155.72;3115065;28;20057;-72
2022/05/29 03:45:51;;;;;;;13.45;4.68;;;;;;;18.18;79.87;99153.63;3115371;28;20131;-72
2022/05/29 03:47:23;;;;;;;13.70;4.10;;;;;;;18.18;79.94;99130.75;3114723;28;20083;-73
2022/05/29 03:48:55;;;;;;;11.05;4.65;;;;;;;18.12;80.39;99077.75;3114266;28;20057;-72
2022/05/29 03:50:27;;;;;;;13.07;4.85;;;;;;;18.11;80.84;99065.56;3115022;28;20055;-72
2022/05/29 03:52:01;;;;;;;13.80;4.80;;;;;;;18.12;80.87;99073.31;3114701;28;20053;-70
2022/05/29 03:53:36;;;;;;;18.92;5.18;;;;;;;18.13;81.03;99082.03;3114927;28;20148;-71
2022/05/29 03:55:09;;;;;;;22.77;6.00;;;;;;;18.13;80.93;99082.03;3115056;28;20049;-72
2022/05/29 03:56:41;;;;;;;11.02;4.05;;;;;;;17.98;80.91;99057.06;3108802;28;20053;-73
2022/05/29 03:58:13;;;;;;;12.00;5.18;;;;;;;18.04;80.76;99069.69;3120692;28;20053;-73
2022/05/29 03:59:45;;;;;;;11.13;4.35;;;;;;;18.12;80.67;99093.56;3114884;28;20065;-72
2022/05/29 04:01:17;;;;;;;13.90;4.53;;;;;;;18.12;80.59;99099.66;3115115;28;20053;-74
2022/05/29 04:02:49;;;;;;;16.10;5.40;;;;;;;18.11;80.39;99089.28;3114482;28;20049;-74
2022/05/29 04:04:21;;;;;;;16.00;5.13;;;;;;;18.06;80.41;99086.19;3114348;28;20491;-73
2022/05/29 04:05:54;;;;;;;17.42;5.13;;;;;;;18.17;80.30;99107.19;3115098;28;20713;-74
2022/05/29 04:12:52;;;;;;;15.52;5.65;;;;;;;18.05;80.62;99080.09;3117549;28;20127;-75
2022/05/29 04:14:24;;;;;;;13.70;5.00;;;;;;;18.10;80.40;99095.50;3117268;28;20072;-74
2022/05/29 04:15:56;;;;;;;15.85;5.13;;;;;;;18.00;80.38;99070.94;3117603;28;20057;-74
2022/05/29 04:17:28;;;;;;;15.55;5.20;;;;;;;18.05;80.30;99082.75;3118797;28;20111;-74
2022/05/29 04:19:00;;;;;;;12.27;5.20;;;;;;;18.04;80.52;99080.22;3113182;28;20119;-73
2022/05/29 04:20:32;;;;;;;14.13;5.38;;;;;;;17.89;80.60;99056.88;3112769;28;20050;-74
2022/05/29 04:22:08;;;;;;;15.90;5.75;;;;;;;18.05;80.92;99082.75;3111646;28;20088;-73
2022/05/29 04:23:41;;;;;;;16.40;5.07;;;;;;;17.95;81.31;99081.84;3113420;28;20770;-74
2022/05/29 04:25:13;;;;;;;;;;;;;;;18.04;81.36;99098.66;3112856;28;20053;-74
2022/05/29 04:26:45;;;;;;;16.85;4.97;;;;;;;18.05;81.49;99097.72;3112283;28;20418;-73
2022/05/29 04:28:17;;;;;;;13.85;4.95;;;;;;;18.08;81.41;99093.00;3112643;28;20053;-73
2022/05/29 04:29:49;;;;;;;15.00;5.22;;;;;;;18.11;81.32;99105.09;3113218;28;20550;-72
2022/05/29 04:31:21;;;;;;;12.70;4.47;;;;;;;18.13;81.05;99105.75;3115186;28;20080;-74
2022/05/29 04:33:01;;;;;;;17.20;4.90;;;;;;;18.16;81.41;99105.50;3112505;28;20523;-74
2022/05/29 04:34:33;;;;;;;14.80;5.00;;;;;;;18.19;81.56;99106.09;3113003;28;20049;-74
2022/05/29 04:36:06;;;;;;;16.00;5.43;;;;;;;18.04;81.38;99078.41;3112024;28;20221;-74
2022/05/29 04:37:39;;;;;;;13.98;5.10;;;;;;;18.27;81.71;99099.28;3106966;28;20049;-74
2022/05/29 04:39:12;;;;;;;21.38;5.38;;;;;;;18.32;81.78;99099.72;3112874;28;20561;-73
2022/05/29 04:40:45;;;;;;;12.93;4.60;;;;;;;18.35;81.71;99100.28;3112398;28;20237;-73
2022/05/29 04:42:17;;;;;;;15.98;5.00;;;;;;;18.41;81.51;99093.63;3112109;28;20053;-73
2022/05/29 04:43:49;;;;;;;15.00;5.10;;;;;;;18.45;81.50;99089.75;3111946;28;20153;-73
2022/05/29 04:45:21;;;;;;;16.67;5.20;;;;;;;18.54;81.37;99085.44;3112051;28;20099;-74
2022/05/29 04:46:53;;;;;;;13.98;5.55;;;;;;;18.60;81.67;99083.13;3112024;28;20065;-73
2022/05/29 04:48:25;;;;;;;13.13;5.75;;;;;;;18.61;81.72;99070.75;3112304;28;20057;-74
2022/05/29 04:49:57;;;;;;;11.57;5.10;;;;;;;18.72;81.57;99075.06;3112484;28;20507;-74
2022/05/29 04:51:29;;;;;;;16.45;4.82;;;;;;;18.79;81.27;99078.84;3111728;28;20059;-74
2022/05/29 04:53:01;;;;;;;15.57;4.93;;;;;;;18.77;80.92;99067.59;3112639;28;20166;-74
2022/05/29 04:54:36;;;;;;;13.07;4.68;;;;;;;18.72;80.52;99054.78;3112125;28;20597;-73
2022/05/29 04:56:09;;;;;;;11.88;4.75;;;;;;;18.94;80.52;99088.00;3112267;28;20115;-72
2022/05/29 04:57:41;;;;;;;14.18;4.63;;;;;;;18.84;79.97;99074.81;3116515;28;20056;-74
2022/05/29 04:59:14;;;;;;;16.38;4.90;;;;;;;19.02;79.77;99103.97;3113402;28;20053;-74
2022/05/29 05:00:46;;;;;;;14.90;4.80;;;;;;;19.07;79.47;99101.72;3112608;28;20402;-74
2022/05/29 05:02:18;;;;;;;16.60;4.68;;;;;;;19.09;79.47;99101.59;3115868;28;20053;-74
2022/05/29 05:03:50;;;;;;;11.38;4.47;;;;;;;19.18;79.41;99107.84;3102222;28;20111;-73
2022/05/29 05:05:23;;;;;;;12.73;4.50;;;;;;;19.20;79.29;99104.09;3112786;28;20529;-73
2022/05/29 05:06:55;;;;;;;12.93;3.83;;;;;;;19.23;79.03;99105.63;3115229;28;20064;-72
2022/05/29 05:08:28;;;;;;;9.05;4.82;;;;;;;19.21;78.59;99103.09;3116681;28;20053;-73
2022/05/29 05:10:01;;;;;;;11.82;4.30;;;;;;;19.26;78.26;99106.16;3116800;28;20135;-72
2022/05/29 05:11:36;;;;;;;13.10;5.00;;;;;;;19.31;78.05;99116.28;3116676;28;20057;-72
2022/05/29 05:13:09;;;;;;;14.30;4.53;;;;;;;19.32;77.86;99118.78;3121728;28;20395;-73
2022/05/29 05:14:47;;;;;;;15.52;4.78;;;;;;;19.37;77.64;99117.53;3126780;28;20245;-74
2022/05/29 05:16:19;;;;;;;13.10;4.93;;;;;;;19.42;77.69;99117.94;3125851;28;20053;-73
2022/05/29 05:17:51;;;;;;;12.80;4.75;;;;;;;19.48;77.54;99120.84;3116744;28;20107;-73
2022/05/29 05:19:23;;;;;;;14.90;4.65;;;;;;;19.51;77.36;99115.28;3115625;28;20057;-74
2022/05/29 05:20:55;;;;;;;17.02;4.63;;;;;;;19.53;76.95;99117.78;3116932;28;20057;-73
2022/05/29 05:22:27;;;;;;;12.95;4.40;;;;;;;19.55;76.68;99119.31;3115427;28;20065;-72
2022/05/29 05:23:59;;;;;;;15.10;4.90;;;;;;;19.62;76.32;99124.00;3123267;28;20041;-73
2022/05/29 05:25:33;;;;;;;14.43;4.75;;;;;;;19.59;76.28;99103.16;3119725;28;20053;-73
2022/05/29 05:27:06;;;;;;;14.82;5.43;;;;;;;19.70;76.03;99111.78;3121321;28;20605;-72
2022/05/29 05:28:38;;;;;;;;;;;;;;;19.75;76.05;99100.78;3117522;28;20291;-72
2022/05/29 05:30:11;;;;;;;12.57;5.43;;;;;;;19.78;75.76;99092.56;3116720;28;20373;-73
2022/05/29 05:31:43;;;;;;;18.63;4.75;;;;;;;19.80;75.27;99087.97;3116307;28;20058;-74
2022/05/29 05:33:16;;;;;;;18.45;5.55;;;;;;;19.88;74.94;99096.00;3116489;28;20054;-73
2022/05/29 05:34:48;;;;;;;10.75;4.25;;;;;;;19.92;74.77;99104.47;3117204;28;20053;-72
2022/05/29 05:36:20;;;;;;;12.70;5.20;;;;;;;19.93;74.32;99101.66;3116917;28;20072;-71
2022/05/29 05:37:52;;;;;;;17.38;5.88;;;;;;;19.74;74.02;99076.16;3117506;28;20136;-74
2022/05/29 05:39:24;;;;;;;12.73;3.67;;;;;;;19.89;73.58;99108.22;3116212;28;20447;-73
2022/05/29 05:40:58;;;;;;;10.93;4.13;;;;;;;19.91;73.44;99116.84;3116653;28;20053;-74
2022/05/29 05:42:30;;;;;;;20.45;7.57;;;;;;;19.91;73.32;99110.75;3122179;28;20049;-70
2022/05/29 05:44:02;;;;;;;14.85;5.10;;;;;;;19.92;73.36;99117.69;3126182;28;20096;-71
2022/05/29 05:45:33;;;;;;;15.38;6.70;;;;;;;19.93;73.38;99106.94;3125732;28;20053;-71
2022/05/29 05:47:08;;;;;;;15.07;6.28;;;;;;;19.93;73.36;99104.31;3124763;28;20064;-66
2022/05/29 05:48:40;;;;;;;22.75;11.05;;;;;;;19.72;73.42;99067.53;3122582;28;20068;-74
2022/05/29 05:50:12;;;;;;;17.80;6.93;;;;;;;20.03;73.53;99112.22;3122182;28;20091;-71
2022/05/29 05:51:44;;;;;;;16.80;5.93;;;;;;;20.08;73.54;99112.56;3125988;28;20061;-69
2022/05/29 05:53:16;;;;;;;16.00;5.38;;;;;;;20.10;73.36;99110.63;3124754;28;20049;-72
2022/05/29 05:54:48;;;;;;;12.00;5.03;;;;;;;20.06;73.26;99100.50;3116369;28;20510;-72
2022/05/29 05:56:21;;;;;;;20.85;5.78;;;;;;;20.19;73.56;99115.03;3115782;28;20111;-70
2022/05/29 05:57:54;;;;;;;;;;;;;;;20.25;73.49;99112.78;3115647;28;20123;-79
2022/05/29 05:59:26;;;;;;;13.85;5.15;;;;;;;20.28;73.39;99100.09;3118913;28;19960;-76
2022/05/29 06:00:58;;;;;;;12.55;4.82;;;;;;;20.28;nan;99093.97;3121860;28;20057;-80
2022/05/29 06:02:33;;;;;;;14.77;4.72;;;;;;;20.26;72.84;99086.22;3124126;28;20049;-80
2022/05/29 06:04:05;;;;;;;13.23;4.60;;;;;;;20.44;73.23;99110.03;3121582;28;20119;-76
2022/05/29 06:05:37;;;;;;;13.23;5.53;;;;;;;20.50;73.33;99103.28;3120967;28;20041;-75
2022/05/29 06:07:10;;;;;;;14.57;4.78;;;;;;;20.55;73.20;99104.53;3115467;28;20119;-76
2022/05/29 06:08:42;;;;;;;12.02;4.75;;;;;;;20.61;73.10;99103.94;3113333;28;20119;-76
2022/05/29 06:10:14;;;;;;;17.02;4.78;;;;;;;20.68;73.33;99109.47;3116311;28;20852;-71
2022/05/29 06:11:47;;;;;;;11.90;4.75;;;;;;;20.66;73.04;99093.75;3116147;28;20079;-73
2022/05/29 06:13:19;;;;;;;;;;;;;;;20.79;72.88;99111.06;3116513;28;20073;-75
2022/05/29 06:14:53;;;;;;;9.82;4.70;;;;;;;20.78;72.91;99104.09;3116175;28;19932;-74
2022/05/29 06:16:25;;;;;;;18.35;5.13;;;;;;;20.77;72.79;99097.16;3116161;28;20099;-78
2022/05/29 06:17:58;;;;;;;11.75;4.43;;;;;;;20.71;72.79;99076.59;3116197;28;20065;-78
2022/05/29 06:19:30;;;;;;;14.05;4.60;;;;;;;20.93;73.09;99109.69;3114335;28;20049;-75
2022/05/29 06:21:04;;;;;;;18.30;5.03;;;;;;;20.88;72.77;99092.47;3114800;28;20051;-75
2022/05/29 06:22:37;;;;;;;14.00;4.25;;;;;;;20.96;72.74;99096.97;3116869;28;20049;-74
2022/05/29 06:24:09;;;;;;;27.60;5.70;;;;;;;20.98;73.24;99097.66;3115916;28;20132;-73
2022/05/29 06:25:42;;;;;;;16.70;5.63;;;;;;;20.82;72.59;99052.53;3109323;28;20244;-73
2022/05/29 06:27:16;;;;;;;14.05;4.97;;;;;;;21.00;72.50;99093.06;3116015;28;20060;-76
2022/05/29 06:28:48;;;;;;;16.67;5.68;;;;;;;21.01;72.69;99100.00;3116038;28;20431;-76
2022/05/29 06:30:20;;;;;;;12.05;4.70;;;;;;;20.99;72.64;99090.56;3116103;28;20300;-69
2022/05/29 06:31:53;;;;;;;13.63;4.68;;;;;;;21.00;72.45;99087.78;3116197;28;20065;-70
2022/05/29 06:33:28;;;;;;;12.23;4.68;;;;;;;21.02;72.62;99079.66;3115432;28;20050;-71
2022/05/29 06:35:00;;;;;;;14.75;4.93;;;;;;;21.08;72.59;99090.47;3116026;28;20784;-71
2022/05/29 06:36:32;;;;;;;22.40;5.22;;;;;;;21.16;72.18;99094.16;3115697;28;20053;-70
2022/05/29 06:38:02;;;;;;;14.05;5.13;;;;;;;21.12;72.04;99085.72;3115621;28;20072;-69
2022/05/29 06:39:36;;;;;;;27.10;5.13;;;;;;;21.07;71.90;99080.88;3116059;28;20102;-66
2022/05/29 06:41:08;;;;;;;;;;;;;;;21.17;72.12;99085.22;3116384;28;20512;-69
2022/05/29 06:42:41;;;;;;;11.35;4.00;;;;;;;21.19;72.01;99085.91;3115812;28;19964;-68
2022/05/29 06:44:13;;;;;;;16.33;4.72;;;;;;;21.21;71.49;99089.22;3115780;28;20049;-71
2022/05/29 06:45:45;;;;;;;14.45;4.65;;;;;;;21.25;71.31;99094.06;3115573;28;20115;-69
2022/05/29 06:47:18;;;;;;;7.15;4.20;;;;;;;21.31;71.22;99100.56;3115590;28;20547;-71
2022/05/29 06:48:50;;;;;;;13.07;5.43;;;;;;;21.27;70.83;99088.63;3115868;28;20127;-69
2022/05/29 06:50:21;;;;;;;13.38;4.00;;;;;;;21.45;71.01;99107.97;3115538;28;20049;-69
2022/05/29 06:51:53;;;;;;;17.00;4.50;;;;;;;21.53;70.43;99109.84;3115921;28;20577;-68
2022/05/29 06:53:25;;;;;;;14.90;4.70;;;;;;;21.60;70.22;99107.41;3117392;28;20057;-65
2022/05/29 06:54:57;;;;;;;28.65;13.93;;;;;;;21.62;69.58;99113.38;3115681;28;20060;-65
2022/05/29 06:56:29;;;;;;;22.17;12.57;;;;;;;21.67;69.20;99106.59;3115542;28;20114;-66
2022/05/29 06:58:02;;;;;;;30.80;11.57;;;;;;;21.75;69.54;99113.78;3114296;28;20118;-66
2022/05/29 07:06:58;;;;;;;119.47;69.07;;;;;;;21.68;69.51;99086.25;3109519;28;20072;-65
2022/05/29 07:07:01;;;;;;;16.83;4.57;;;;;;;22.15;67.85;99088.44;3106289;28;20778;-66
2022/05/29 07:08:35;;;;;;;13.50;4.13;;;;;;;22.24;67.50;99093.66;3110447;28;20800;-68
2022/05/29 07:10:08;;;;;;;13.65;4.47;;;;;;;22.31;67.34;99093.81;3112209;28;20139;-67
2022/05/29 07:11:43;;;;;;;15.05;4.45;;;;;;;22.35;66.97;99089.84;3113570;28;20045;-66
2022/05/29 07:13:16;;;;;;;18.73;4.15;;;;;;;22.42;66.82;99090.88;3114974;28;20057;-67
2022/05/29 07:14:50;;;;;;;;;;;;;;;22.46;66.71;99094.03;3111425;28;20049;-66
2022/05/29 07:16:21;;;;;;;18.02;8.35;;;;;;;22.51;66.76;99097.03;3106210;28;19929;-67
2022/05/29 07:17:52;;;;;;;157.82;99.47;;;;;;;22.57;66.52;99088.41;3106934;28;20081;-67
2022/05/29 07:19:26;;;;;;;17.98;6.75;;;;;;;22.63;66.08;99084.28;3117119;28;20053;-67
2022/05/29 07:20:59;;;;;;;;;;;;;;;22.66;66.31;99089.25;3112154;28;20673;-68
2022/05/29 07:22:32;;;;;;;18.88;6.25;;;;;;;;;;3113417;28;19968;-70
2022/05/29 07:24:04;;;;;;;14.73;5.45;;;;;;;22.73;66.68;99095.56;3113431;28;20077;-68
2022/05/29 07:25:36;;;;;;;20.02;6.07;;;;;;;22.76;67.24;99086.44;3112988;28;20053;-68
2022/05/29 07:27:09;;;;;;;26.13;5.90;;;;;;;22.80;67.47;99087.75;3115325;28;20061;-76
2022/05/29 07:28:42;;;;;;;11.40;4.97;;;;;;;22.88;67.23;99088.59;3111290;28;20084;-66
2022/05/29 07:30:14;;;;;;;;;;;;;;;22.85;67.07;99064.22;3114061;28;20057;-67
2022/05/29 07:31:46;;;;;;;14.63;4.28;;;;;;;23.08;66.91;99085.66;3114995;28;19924;-69
2022/05/29 07:33:18;;;;;;;16.88;4.30;;;;;;;23.19;66.36;99087.97;3113526;28;20485;-69
2022/05/29 07:34:50;;;;;;;16.02;4.40;;;;;;;23.29;66.18;99088.59;3114603;28;20057;-77
2022/05/29 07:36:24;;;;;;;10.90;4.28;;;;;;;23.41;65.81;99086.44;3109572;28;20444;-73
2022/05/29 07:37:57;;;;;;;9.52;3.80;;;;;;;23.50;64.93;99071.31;3109883;28;20108;-75